CYYZ/YYZ METAR and TAF weather

Enter ICAO airport designator
Station Type Date Time Source
CYYZ METAR 2017/11/22 06:00 UTC NOAA

CYYZ 220600Z 30014KT 15SM BKN026 OVC050 03/M02 A2992 RMK SC5SC3 SLP139


Station Type Date Time Source
CYYZ Decoded METAR 2017/11/22 06:00 UTC NOAA

Toronto Pearson Int'L. Ont., Canada (CYYZ) 43-40N 079-38W 173M
Nov 22, 2017 - 01:00 AM EST / 2017.11.22 0600 UTC
Wind: from the WNW (300 degrees) at 16 MPH (14 KT):0
Visibility: 15 mile(s):0
Sky conditions: overcast
Temperature: 37 F (3 C)
Dew Point: 28 F (-2 C)
Relative Humidity: 69%
Pressure (altimeter): 29.92 in. Hg (1013 hPa)
ob: CYYZ 220600Z 30014KT 15SM BKN026 OVC050 03/M02 A2992 RMK SC5SC3 SLP139
cycle: 6

Station Type Date Time Source
CYYZ TAF 2017/11/22 06:42 UTC NOAA

TAF CYYZ 220538Z 2206/2312 30010KT P6SM OVC030
TEMPO 2206/2208 OVC020
FM220800 29010KT P6SM SCT020
TEMPO 2208/2215 BKN020
FM221500 31010G20KT P6SM BKN025
BECMG 2216/2218 31010KT
FM222200 31010KT P6SM SCT030
BECMG 2303/2305 26005KT
FM230900 VRB03KT P6SM SCT020 BKN120
RMK NXT FCST BY 220900Z


Example: see airport list